Time;durP1;ratioP1;P1;durP2;ratioP2;P2;SDS_P1;SDS_P2;PMS_P1;PMS_P2;Temp;Humidity;BMP_temperature;BMP_pressure;BME280_temperature;BME280_humidity;BME280_pressure;Samples;Min_cycle;Max_cycle;Signal;HPM_P1;HPM_P2
2023/01/16 00:00:48;;;;;;;33.88;15.82;;;;;;;-3.08;80.95;146569.19;5084369;28;20028;-65
2023/01/16 00:03:13;;;;;;;26.80;15.90;;;;;;;-2.91;81.32;146609.78;5084294;28;20078;-65
2023/01/16 00:05:39;;;;;;;31.63;15.35;;;;;;;-2.76;81.34;146647.81;5084036;28;20028;-65
2023/01/16 00:08:04;;;;;;;30.83;15.32;;;;;;;-2.72;80.44;146657.97;5084768;28;20025;-66
2023/01/16 00:10:30;;;;;;;33.40;15.57;;;;;;;-2.65;80.01;146675.72;5084421;28;20025;-65
2023/01/16 00:12:55;;;;;;;27.25;14.50;;;;;;;-2.59;80.35;146689.69;5070766;28;20027;-65
2023/01/16 00:15:21;;;;;;;32.67;15.48;;;;;;;-2.91;79.33;146609.78;5084092;28;20028;-65
2023/01/16 00:17:49;;;;;;;32.08;15.00;;;;;;;-2.59;80.38;146689.69;5068551;28;20273;-65
2023/01/16 00:20:15;;;;;;;29.00;13.40;;;;;;;-2.88;80.15;146617.38;5075804;28;20036;-65
2023/01/16 00:22:41;;;;;;;27.83;15.25;;;;;;;-2.82;80.78;146633.88;5084260;28;20040;-65
2023/01/16 00:25:07;;;;;;;31.30;14.65;;;;;;;-2.80;80.67;146637.69;5065554;28;20024;-67
2023/01/16 00:27:32;;;;;;;31.80;13.82;;;;;;;-2.73;79.57;146655.44;5084484;28;20033;-66
2023/01/16 00:29:58;;;;;;;29.85;15.00;;;;;;;-2.93;80.54;146604.72;5084020;28;20028;-67
2023/01/16 00:32:23;;;;;;;35.40;14.90;;;;;;;-2.74;80.25;146651.63;5064949;28;20253;-68
2023/01/16 00:34:49;;;;;;;28.20;14.27;;;;;;;-2.80;80.52;146638.94;5083580;28;20070;-67
2023/01/16 00:37:14;;;;;;;24.23;12.85;;;;;;;-2.69;80.09;146664.34;5083837;28;20024;-67
2023/01/16 00:39:40;;;;;;;28.42;14.00;;;;;;;-2.80;80.31;146638.94;5084119;28;20055;-66
2023/01/16 00:42:06;;;;;;;38.47;14.48;;;;;;;-2.95;80.77;146602.19;5083999;28;20309;-66
2023/01/16 00:44:32;;;;;;;28.25;14.15;;;;;;;-2.85;81.21;146624.97;5083497;28;20493;-66
2023/01/16 00:46:57;;;;;;;22.98;13.15;;;;;;;-2.98;81.26;146593.28;5083976;28;20089;-65
2023/01/16 00:49:23;;;;;;;30.38;14.02;;;;;;;-2.93;81.85;146604.72;5079748;28;20033;-65
2023/01/16 00:51:48;;;;;;;30.80;14.30;;;;;;;-2.96;81.81;146599.63;5063873;28;20020;-66
2023/01/16 00:54:14;;;;;;;25.60;13.38;;;;;;;-2.81;81.70;146635.13;5082233;28;20073;-65
2023/01/16 00:56:40;;;;;;;27.02;14.05;;;;;;;-2.68;80.86;146666.84;5083707;28;20066;-65
2023/01/16 00:59:05;;;;;;;33.47;13.25;;;;;;;-2.71;81.33;146659.22;5083671;28;20261;-66
2023/01/16 01:01:31;;;;;;;27.67;13.60;;;;;;;-2.90;80.85;146613.56;5081791;28;20024;-66
2023/01/16 01:03:58;;;;;;;22.77;13.63;;;;;;;-2.71;81.33;146660.47;5083203;28;20429;-66
2023/01/16 01:06:24;;;;;;;26.67;13.32;;;;;;;-2.79;81.80;146640.22;5082844;28;20735;-66
2023/01/16 01:08:50;;;;;;;30.20;13.95;;;;;;;-2.81;81.63;146635.13;5082973;28;20024;-67
2023/01/16 01:11:15;;;;;;;23.50;12.93;;;;;;;-2.73;80.89;146655.44;5083397;28;20197;-65
2023/01/16 01:13:42;;;;;;;24.13;12.68;;;;;;;-2.64;81.54;146678.28;5082754;28;20032;-66
2023/01/16 01:16:09;;;;;;;33.40;14.00;;;;;;;-2.69;81.94;146665.56;5081771;28;20043;-66
2023/01/16 01:18:35;;;;;;;31.48;14.75;;;;;;;-2.93;82.36;146604.72;5083431;28;20088;-67
2023/01/16 01:21:00;;;;;;;26.73;12.75;;;;;;;-2.90;82.67;146613.56;5083263;28;20091;-66
2023/01/16 01:23:26;;;;;;;26.55;12.95;;;;;;;-2.83;82.22;146630.06;5082568;28;20073;-65
2023/01/16 01:25:52;;;;;;;24.33;11.88;;;;;;;-2.88;82.75;146617.38;5064937;28;20324;-66
2023/01/16 01:28:18;;;;;;;28.27;12.35;;;;;;;-2.90;82.50;146612.31;5083036;28;20325;-66
2023/01/16 01:30:43;;;;;;;24.70;13.25;;;;;;;-2.84;81.94;146628.78;5083341;28;20083;-67
2023/01/16 01:33:09;;;;;;;20.67;12.02;;;;;;;-2.66;82.93;146671.94;5083055;28;20071;-68
2023/01/16 01:35:35;;;;;;;23.63;11.77;;;;;;;-2.92;82.50;146607.22;5082806;28;20031;-68
2023/01/16 01:38:01;;;;;;;27.27;12.45;;;;;;;-2.88;82.95;146617.38;5082961;28;20220;-66
2023/01/16 01:40:27;;;;;;;23.63;12.07;;;;;;;-2.77;82.50;146645.28;5082589;28;20032;-65
2023/01/16 01:42:53;;;;;;;25.38;11.80;;;;;;;-2.76;82.32;146647.81;5065209;28;20255;-65
2023/01/16 01:45:23;;;;;;;32.25;12.23;;;;;;;-2.68;82.23;146666.84;5081926;28;20047;-66
2023/01/16 01:47:56;;;;;;;23.58;11.70;;;;;;;-2.66;82.07;146673.19;5067328;28;20071;-65
2023/01/16 01:50:29;;;;;;;21.42;11.88;;;;;;;-2.75;82.24;146650.38;5081857;28;20040;-67
2023/01/16 01:52:59;;;;;;;27.85;11.90;;;;;;;-2.74;82.45;146651.63;5082908;28;20080;-66
2023/01/16 01:55:25;;;;;;;36.83;12.80;;;;;;;-2.89;82.72;146614.81;5082154;28;20289;-66
2023/01/16 01:57:58;;;;;;;21.10;11.00;;;;;;;-3.03;82.81;146581.88;5082645;28;20025;-65
2023/01/16 02:00:26;;;;;;;23.48;11.35;;;;;;;-2.87;83.56;146621.19;5062202;28;20048;-65
2023/01/16 02:02:59;;;;;;;28.85;12.40;;;;;;;-2.72;82.75;146657.97;5078168;28;20063;-65
2023/01/16 02:05:49;;;;;;;31.55;12.90;;;;;;;-2.81;83.44;146635.13;5077826;28;20029;-66
2023/01/16 02:08:17;;;;;;;22.13;12.00;;;;;;;-2.80;83.52;146638.94;5063003;28;20055;-66
2023/01/16 02:10:53;;;;;;;26.65;12.85;;;;;;;-2.85;82.68;146624.97;5082327;28;20340;-66
2023/01/16 02:13:19;;;;;;;28.05;13.10;;;;;;;-2.77;82.39;146645.28;5079335;28;20075;-66
2023/01/16 02:21:42;;;;;;;29.77;11.98;;;;;;;-2.88;82.96;146618.66;5061659;28;20040;-65
2023/01/16 02:24:17;;;;;;;34.00;13.13;;;;;;;-2.79;82.92;146641.47;5079378;28;20028;-66
2023/01/16 02:27:00;;;;;;;32.55;13.13;;;;;;;-2.84;83.24;146627.53;5082313;28;20039;-65
2023/01/16 02:30:04;;;;;;;38.38;12.18;;;;;;;-2.79;83.01;146641.47;5081937;28;20096;-65
2023/01/16 02:32:29;;;;;;;36.65;13.15;;;;;;;-2.66;82.73;146673.19;5070702;28;20075;-67
2023/01/16 02:35:09;;;;;;;34.80;13.45;;;;;;;-2.69;83.05;146665.56;5081804;28;20520;-67
2023/01/16 02:37:53;;;;;;;31.83;13.48;;;;;;;-2.81;82.95;146635.13;5082316;28;20351;-67
2023/01/16 02:40:38;;;;;;;30.95;12.95;;;;;;;-2.63;83.08;146679.53;5082157;28;20040;-67
2023/01/16 02:43:19;;;;;;;31.50;12.50;;;;;;;-2.81;82.28;146636.44;5082066;28;20283;-66
2023/01/16 02:45:56;;;;;;;25.92;12.20;;;;;;;-2.84;82.32;146627.53;5081659;28;20343;-66
2023/01/16 02:48:47;;;;;;;23.60;11.48;;;;;;;-2.98;82.35;146594.56;5062567;28;20071;-65
2023/01/16 02:51:34;;;;;;;27.60;11.15;;;;;;;-2.92;83.29;146607.22;5080037;28;20031;-67
2023/01/16 02:54:20;;;;;;;28.20;10.85;;;;;;;-2.94;83.07;146603.41;5081576;28;20088;-66
2023/01/16 02:56:52;;;;;;;30.33;11.70;;;;;;;-3.02;82.92;146584.44;5081975;28;20048;-66
2023/01/16 02:59:18;;;;;;;22.73;9.48;;;;;;;-2.96;82.93;146599.63;5063860;28;20071;-65
2023/01/16 03:01:49;;;;;;;29.20;11.13;;;;;;;-2.97;83.37;146595.81;5082219;28;20028;-65
2023/01/16 03:04:36;;;;;;;20.88;10.25;;;;;;;-2.93;83.00;146604.72;5081517;28;20309;-65
2023/01/16 03:07:16;;;;;;;27.10;10.50;;;;;;;-2.95;82.55;146602.19;5064180;28;20245;-67
2023/01/16 03:09:49;;;;;;;24.05;10.85;;;;;;;-2.89;82.91;146616.13;5065432;28;20037;-67
2023/01/16 03:12:41;;;;;;;26.23;10.63;;;;;;;-2.89;82.50;146616.13;5081918;28;20028;-66
2023/01/16 03:15:10;;;;;;;20.48;10.15;;;;;;;-2.74;81.87;146652.88;5081540;28;20193;-66
2023/01/16 03:17:53;;;;;;;26.55;10.27;;;;;;;-2.93;82.24;146604.72;5081677;28;20032;-67
2023/01/16 03:20:53;;;;;;;26.08;10.85;;;;;;;-2.91;82.58;146611.03;5081540;28;20024;-65
2023/01/16 03:23:40;;;;;;;23.42;12.23;;;;;;;-2.99;82.51;146592.03;5081712;28;20040;-66
2023/01/16 03:26:20;;;;;;;29.20;9.85;;;;;;;-2.91;82.51;146609.78;5081524;28;20048;-66
2023/01/16 03:28:55;;;;;;;23.42;10.43;;;;;;;-2.87;82.81;146619.91;5081475;28;20057;-65
2023/01/16 03:31:49;;;;;;;19.52;9.90;;;;;;;-2.87;82.66;146619.91;5081705;28;20048;-66
2023/01/16 03:34:23;;;;;;;27.27;10.27;;;;;;;-3.02;82.44;146584.44;5084685;28;20021;-66
2023/01/16 03:36:57;;;;;;;24.42;9.13;;;;;;;-3.20;83.38;146538.78;5067487;28;20028;-67
2023/01/16 03:39:30;;;;;;;21.98;10.35;;;;;;;-3.08;82.57;146567.94;5085374;28;20033;-67
2023/01/16 03:42:04;;;;;;;20.55;9.55;;;;;;;-3.17;82.34;146546.38;5085445;28;20024;-66
2023/01/16 03:44:35;;;;;;;22.23;9.43;;;;;;;-3.04;82.27;146579.31;5084639;28;20052;-66
2023/01/16 03:47:02;;;;;;;26.50;9.38;;;;;;;-3.01;82.41;146586.94;5085001;28;20138;-67
2023/01/16 03:49:33;;;;;;;23.15;9.23;;;;;;;-3.14;82.31;146553.97;5085094;28;20112;-67
2023/01/16 03:52:04;;;;;;;25.83;10.45;;;;;;;-3.15;82.86;146551.44;5084945;28;20567;-65
2023/01/16 03:54:45;;;;;;;25.92;9.98;;;;;;;-3.14;82.89;146553.97;5084208;28;20028;-65
2023/01/16 03:57:37;;;;;;;23.08;9.68;;;;;;;-3.17;83.63;146546.38;5084924;28;20362;-66
2023/01/16 04:00:04;;;;;;;24.42;9.52;;;;;;;-3.17;82.91;146547.63;5084901;28;20051;-66
2023/01/16 04:02:41;;;;;;;20.42;9.55;;;;;;;-3.10;82.97;146562.88;5083952;28;20052;-67
2023/01/16 04:05:09;;;;;;;25.48;9.30;;;;;;;-3.22;82.86;146533.69;5082578;28;20036;-66
2023/01/16 04:07:38;;;;;;;26.83;9.55;;;;;;;-3.37;82.89;146496.94;5068636;28;20093;-67
2023/01/16 04:10:25;;;;;;;25.60;10.50;;;;;;;-3.39;82.69;146493.16;5084183;28;20097;-68
2023/01/16 04:13:06;;;;;;;23.15;9.23;;;;;;;-3.23;82.83;146532.44;5065373;28;20305;-68
2023/01/16 04:15:34;;;;;;;23.33;10.52;;;;;;;-3.22;83.29;146534.97;5084239;28;20025;-67
2023/01/16 04:18:00;;;;;;;31.02;10.43;;;;;;;-2.94;82.39;146603.41;5057972;28;20032;-66
2023/01/16 04:20:28;;;;;;;24.60;10.32;;;;;;;-3.31;83.51;146513.44;5074963;28;20020;-66
2023/01/16 04:22:54;;;;;;;23.98;10.00;;;;;;;-3.01;82.56;146586.94;5072669;28;20059;-65
2023/01/16 04:25:20;;;;;;;26.80;10.90;;;;;;;-3.25;83.27;146527.38;5083622;28;20047;-68
2023/01/16 04:27:46;;;;;;;24.67;10.45;;;;;;;-3.09;82.94;146566.69;5084297;28;20039;-66
2023/01/16 04:30:12;;;;;;;23.48;10.50;;;;;;;-3.04;82.51;146579.31;5083567;28;20039;-68
2023/01/16 04:32:38;;;;;;;33.65;11.10;;;;;;;-2.96;82.64;146599.63;5082599;28;20033;-69
2023/01/16 04:35:04;;;;;;;24.55;10.45;;;;;;;-3.04;82.74;146578.06;5084764;28;20047;-67
2023/01/16 04:37:30;;;;;;;23.60;9.40;;;;;;;-3.28;82.89;146518.50;5083747;28;20051;-66
2023/01/16 04:39:56;;;;;;;22.02;10.00;;;;;;;-3.28;83.94;146518.50;5083544;28;20024;-67
2023/01/16 04:42:21;;;;;;;26.45;10.27;;;;;;;-3.31;83.61;146513.44;5083123;28;20016;-67
2023/01/16 04:44:47;;;;;;;28.95;10.73;;;;;;;-3.19;82.85;146542.59;5061665;28;20072;-67
2023/01/16 04:47:13;;;;;;;19.67;9.75;;;;;;;-3.19;83.19;146542.59;5045293;28;20033;-66
2023/01/16 04:49:38;;;;;;;25.85;10.32;;;;;;;-3.12;83.40;146560.31;5057546;28;20025;-68
2023/01/16 04:52:04;;;;;;;28.27;10.32;;;;;;;-2.96;82.61;146599.63;5054157;28;20359;-68
2023/01/16 04:54:29;;;;;;;27.42;10.70;;;;;;;-3.02;82.08;146584.44;5068537;28;20041;-68
2023/01/16 04:56:55;;;;;;;24.35;9.90;;;;;;;-3.04;82.27;146578.06;5055630;28;20039;-69
2023/01/16 04:59:21;;;;;;;26.42;11.07;;;;;;;-3.08;82.29;146567.94;5055880;28;20089;-67
2023/01/16 05:01:46;;;;;;;22.70;10.90;;;;;;;-3.07;82.30;146571.72;5048400;28;20036;-68
2023/01/16 05:04:14;;;;;;;24.92;11.73;;;;;;;-3.03;82.08;146581.88;5063334;28;20037;-69
2023/01/16 05:06:39;;;;;;;30.98;11.70;;;;;;;-3.25;82.52;146526.09;5062885;28;20071;-68
2023/01/16 05:09:06;;;;;;;23.90;11.27;;;;;;;-3.15;82.04;146552.72;5047661;28;20025;-68
2023/01/16 05:11:32;;;;;;;21.42;11.18;;;;;;;-3.19;82.62;146542.59;5061601;28;20037;-67
2023/01/16 05:13:58;;;;;;;27.40;11.18;;;;;;;-2.96;82.52;146599.63;5062948;28;20048;-68
2023/01/16 05:16:24;;;;;;;18.77;10.55;;;;;;;-3.16;82.05;146550.19;5062960;28;20091;-68
2023/01/16 05:18:50;;;;;;;24.75;10.02;;;;;;;-3.01;82.28;146585.69;5063719;28;20036;-68
2023/01/16 05:21:16;;;;;;;34.80;12.10;;;;;;;-3.04;81.80;146578.06;5063112;28;20286;-67
2023/01/16 05:23:41;;;;;;;23.45;10.48;;;;;;;-3.25;81.91;146526.09;5063356;28;20039;-67
2023/01/16 05:26:07;;;;;;;29.45;10.35;;;;;;;-3.30;81.84;146515.94;5063135;28;20070;-67
2023/01/16 05:28:34;;;;;;;29.67;11.38;;;;;;;-3.20;81.97;146538.78;5062967;28;20041;-67
2023/01/16 05:31:00;;;;;;;26.83;10.55;;;;;;;-3.33;81.79;146508.34;5061753;28;20029;-67
2023/01/16 05:33:26;;;;;;;28.95;11.65;;;;;;;-3.46;82.48;146475.41;5062687;28;20060;-67
2023/01/16 05:35:53;;;;;;;25.05;10.10;;;;;;;-3.26;82.19;146523.53;5060774;28;20087;-66
2023/01/16 05:38:19;;;;;;;25.17;11.68;;;;;;;-3.67;82.84;146424.69;5062868;28;20248;-67
2023/01/16 05:40:44;;;;;;;27.52;10.63;;;;;;;-3.50;82.76;146466.50;5061866;28;20025;-68
2023/01/16 05:43:10;;;;;;;28.20;10.65;;;;;;;-3.24;82.60;146528.63;5055861;28;20056;-68
2023/01/16 05:45:36;;;;;;;31.08;11.93;;;;;;;-3.31;82.32;146513.44;5040585;28;20225;-67
2023/01/16 05:48:02;;;;;;;25.95;9.73;;;;;;;-3.40;82.44;146490.59;5074214;28;20021;-67
2023/01/16 05:50:28;;;;;;;29.05;10.50;;;;;;;-3.41;82.10;146486.81;5071856;28;20031;-67
2023/01/16 05:52:54;;;;;;;26.63;10.50;;;;;;;-3.29;81.99;146517.25;5073279;28;20080;-67
2023/01/16 05:55:20;;;;;;;25.73;10.55;;;;;;;-3.37;82.24;146498.19;5072203;28;20055;-67
2023/01/16 05:57:45;;;;;;;25.48;10.27;;;;;;;-3.26;82.20;146523.53;5074091;28;20048;-67
2023/01/16 06:00:11;;;;;;;26.55;9.90;;;;;;;-3.37;81.80;146498.19;5073046;28;20051;-68
2023/01/16 06:02:37;;;;;;;24.50;10.15;;;;;;;-3.38;81.77;146495.66;5073201;28;20028;-68
2023/01/16 06:05:03;;;;;;;28.60;9.70;;;;;;;-3.37;81.72;146496.94;5074294;28;20017;-68
2023/01/16 06:07:29;;;;;;;24.63;9.35;;;;;;;-3.40;81.46;146490.59;5071632;28;20021;-68
2023/01/16 06:09:54;;;;;;;26.75;10.57;;;;;;;-3.39;81.81;146491.84;5074324;28;20240;-68
2023/01/16 06:12:20;;;;;;;23.45;10.57;;;;;;;-3.47;81.99;146472.84;5072116;28;20024;-68
2023/01/16 06:14:46;;;;;;;25.63;10.70;;;;;;;-3.52;82.42;146460.16;5082466;28;20025;-66
2023/01/16 06:17:14;;;;;;;26.55;10.43;;;;;;;-3.51;82.31;146463.97;5082399;28;20051;-67
2023/01/16 06:19:40;;;;;;;28.00;11.10;;;;;;;-3.41;82.39;146486.81;5078841;28;20078;-67
2023/01/16 06:22:06;;;;;;;29.20;11.90;;;;;;;-3.45;82.13;146477.91;5072129;28;20278;-67
2023/01/16 06:24:32;;;;;;;24.88;10.38;;;;;;;-3.44;81.99;146480.44;5075415;28;20367;-67
2023/01/16 06:26:58;;;;;;;23.55;10.40;;;;;;;-3.32;81.72;146509.59;5078928;28;20020;-68
2023/01/16 06:29:23;;;;;;;29.20;11.43;;;;;;;-3.42;81.97;146484.25;5063992;28;20025;-68
2023/01/16 06:31:49;;;;;;;30.67;10.82;;;;;;;-3.40;81.72;146490.59;5073694;28;20209;-68
2023/01/16 06:34:15;;;;;;;28.88;10.70;;;;;;;-3.55;82.48;146453.88;5057044;28;20308;-67
2023/01/16 06:36:41;;;;;;;33.33;10.70;;;;;;;-3.41;82.08;146488.06;5079101;28;20097;-68
2023/01/16 06:39:08;;;;;;;30.15;10.82;;;;;;;-3.55;82.29;146453.88;5082004;28;20032;-68
2023/01/16 06:41:33;;;;;;;33.35;10.15;;;;;;;-3.79;83.05;146394.31;5062964;28;20078;-69
2023/01/16 06:43:59;;;;;;;33.20;11.13;;;;;;;-3.69;82.40;146419.63;5072190;28;20063;-67
2023/01/16 06:46:25;;;;;;;25.10;9.98;;;;;;;-3.62;82.72;146436.06;5079493;28;20024;-68
2023/01/16 06:48:50;;;;;;;21.63;10.57;;;;;;;-3.51;81.33;146463.97;5081797;28;20031;-69
2023/01/16 06:51:16;;;;;;;20.90;10.82;;;;;;;-3.59;82.35;146443.72;5064167;28;20024;-67
2023/01/16 06:53:41;;;;;;;28.48;11.38;;;;;;;-3.35;81.60;146502.00;5082046;28;20033;-68
2023/01/16 06:56:07;;;;;;;33.33;11.20;;;;;;;-3.61;81.46;146437.38;5082095;28;20028;-68
2023/01/16 06:58:32;;;;;;;28.25;10.95;;;;;;;-3.51;81.66;146463.97;5080155;28;20317;-67
2023/01/16 07:00:58;;;;;;;27.73;11.05;;;;;;;-3.60;81.20;146439.94;5074745;28;20091;-66
2023/01/16 07:03:24;;;;;;;27.35;11.82;;;;;;;-3.49;81.82;146467.81;5073528;28;20024;-67
2023/01/16 07:05:50;;;;;;;27.33;10.68;;;;;;;-3.45;81.19;146477.91;5074482;28;20388;-68
2023/01/16 07:08:16;;;;;;;33.28;12.02;;;;;;;-3.49;80.93;146469.06;5077575;28;20040;-67
2023/01/16 07:10:42;;;;;;;33.58;11.82;;;;;;;-3.74;81.53;146406.94;5075331;28;20028;-66
2023/01/16 07:13:09;;;;;;;25.77;12.52;;;;;;;-3.69;81.63;146418.34;5074468;28;20027;-67
2023/01/16 07:24:02;;;;;;;24.67;11.13;;;;;;;-3.52;80.91;146460.16;5075575;28;20054;-68
2023/01/16 07:26:27;;;;;;;28.92;12.88;;;;;;;-3.42;81.61;146485.56;5058918;28;20024;-67
2023/01/16 07:28:55;;;;;;;26.38;12.43;;;;;;;-3.61;80.70;146438.63;5076239;28;20096;-68
2023/01/16 07:31:22;;;;;;;29.23;14.23;;;;;;;-3.59;81.30;146443.72;5075566;28;20036;-67
2023/01/16 07:33:47;;;;;;;36.55;14.60;;;;;;;-3.45;80.53;146477.91;5076272;28;20029;-66
2023/01/16 07:36:13;;;;;;;42.92;15.45;;;;;;;-3.56;80.31;146450.03;5074736;28;20354;-68
2023/01/16 07:38:38;;;;;;;26.08;13.98;;;;;;;-3.39;80.74;146493.16;5079283;28;20295;-67
2023/01/16 07:41:04;;;;;;;30.35;12.38;;;;;;;-3.68;80.83;146422.19;5075076;28;20052;-66
2023/01/16 07:43:30;;;;;;;32.90;15.38;;;;;;;-3.54;80.83;146455.13;5055058;28;20063;-67
2023/01/16 07:45:55;;;;;;;34.35;15.07;;;;;;;-3.57;80.38;146448.78;5056032;28;20029;-69
2023/01/16 07:48:22;;;;;;;31.52;14.48;;;;;;;-3.47;80.63;146474.09;5061566;28;20305;-66
2023/01/16 07:50:52;;;;;;;33.72;14.85;;;;;;;-3.35;80.90;146502.00;5065093;28;20021;-67
2023/01/16 07:53:21;;;;;;;33.72;14.93;;;;;;;-3.50;80.00;146465.25;5065001;28;20092;-67
2023/01/16 07:55:51;;;;;;;29.00;13.88;;;;;;;-3.50;80.70;146465.25;5065102;28;20031;-67
2023/01/16 07:58:17;;;;;;;37.90;15.52;;;;;;;-3.64;81.34;146432.28;5064942;28;20521;-67
2023/01/16 08:00:44;;;;;;;26.58;13.43;;;;;;;-3.67;80.35;146423.44;5064923;28;20057;-67
2023/01/16 08:03:09;;;;;;;34.53;13.68;;;;;;;-3.66;80.88;146427.22;5064832;28;20037;-68
2023/01/16 08:05:35;;;;;;;30.23;13.98;;;;;;;-3.60;81.35;146439.94;5064440;28;20176;-66
2023/01/16 08:08:00;;;;;;;32.92;14.25;;;;;;;-3.39;80.95;146493.16;5059408;28;20021;-67
2023/01/16 08:10:26;;;;;;;28.35;12.52;;;;;;;-3.46;80.55;146475.41;5056494;28;20027;-68
2023/01/16 08:12:51;;;;;;;26.50;10.50;;;;;;;-3.64;80.64;146432.28;5064510;28;20035;-68
2023/01/16 08:15:17;;;;;;;33.80;12.70;;;;;;;-3.49;80.95;146469.06;5063659;28;20040;-67
2023/01/16 08:17:43;;;;;;;26.85;11.32;;;;;;;-3.59;80.73;146442.44;5058779;28;20382;-68
2023/01/16 08:20:09;;;;;;;28.45;11.95;;;;;;;-3.62;80.50;146436.06;5053202;28;20060;-67
2023/01/16 08:22:40;;;;;;;20.98;11.13;;;;;;;-3.68;81.21;146422.19;5055873;28;20048;-67
2023/01/16 08:25:06;;;;;;;34.67;12.27;;;;;;;-3.53;80.71;146457.66;5053971;28;20029;-67
2023/01/16 08:27:32;;;;;;;26.67;10.65;;;;;;;-3.40;80.82;146490.59;5060851;28;20029;-66
2023/01/16 08:29:57;;;;;;;29.17;11.20;;;;;;;-3.56;80.23;146451.31;5064139;28;20052;-67
2023/01/16 08:32:23;;;;;;;26.05;10.05;;;;;;;-3.53;79.94;146457.66;5064067;28;20029;-67
2023/01/16 08:34:48;;;;;;;23.95;10.07;;;;;;;-3.56;80.50;146450.03;5064148;28;20031;-67
2023/01/16 08:37:14;;;;;;;25.17;10.48;;;;;;;-3.44;80.69;146479.19;5057821;28;20017;-67
2023/01/16 08:39:40;;;;;;;23.08;11.10;;;;;;;-3.34;80.63;146505.78;5055659;28;20325;-66
2023/01/16 08:53:06;;;;;;;27.25;10.38;;;;;;;-3.44;80.24;146480.44;5077557;28;20032;-67
2023/01/16 08:55:32;;;;;;;26.30;10.07;;;;;;;-3.44;80.12;146479.19;5067059;28;20117;-67
2023/01/16 08:57:58;;;;;;;23.70;10.07;;;;;;;-3.38;80.18;146495.66;5066066;28;20450;-67
2023/01/16 09:00:28;;;;;;;25.52;9.55;;;;;;;-3.37;79.45;146498.19;5071109;28;20055;-67
2023/01/16 09:02:55;;;;;;;21.35;9.68;;;;;;;-3.34;79.96;146505.78;5083592;28;20052;-66
2023/01/16 09:05:22;;;;;;;19.55;9.77;;;;;;;-3.46;80.70;146475.41;5075959;28;20065;-67
2023/01/16 09:07:48;;;;;;;24.30;9.85;;;;;;;-3.43;80.82;146483.00;5080477;28;20021;-67
2023/01/16 09:10:13;;;;;;;21.00;9.70;;;;;;;-3.46;80.37;146475.41;5071348;28;20399;-67
2023/01/16 09:15:24;;;;;;;19.63;9.40;;;;;;;-3.64;80.48;146432.28;5066693;28;20083;-67
2023/01/16 09:17:50;;;;;;;22.13;9.57;;;;;;;-3.60;81.27;146441.19;5074856;28;20032;-67
2023/01/16 09:20:16;;;;;;;19.42;8.30;;;;;;;-3.65;81.43;146429.78;5083315;28;20067;-67
2023/01/16 09:22:42;;;;;;;21.75;8.88;;;;;;;-3.57;81.09;146447.53;5083244;28;20020;-67
2023/01/16 09:25:08;;;;;;;19.85;8.73;;;;;;;-3.40;79.96;146490.59;5081833;28;20077;-67
2023/01/16 09:27:34;;;;;;;26.52;9.35;;;;;;;-3.47;80.23;146472.84;5082880;28;20032;-67
2023/01/16 09:30:00;;;;;;;18.95;8.77;;;;;;;-3.41;80.35;146488.06;5082152;28;20029;-67
2023/01/16 09:32:25;;;;;;;17.25;7.47;;;;;;;-3.28;80.33;146519.75;5083182;28;20066;-67
2023/01/16 09:34:51;;;;;;;17.33;7.63;;;;;;;-3.34;80.22;146505.78;5083255;28;20324;-68
2023/01/16 09:37:17;;;;;;;18.10;8.88;;;;;;;-3.48;81.10;146471.59;5083036;28;20020;-68
2023/01/16 09:39:42;;;;;;;16.08;8.60;;;;;;;-3.32;80.94;146510.88;5083017;28;20028;-66
2023/01/16 09:45:12;;;;;;;23.88;9.25;;;;;;;-3.37;81.11;146496.94;5082808;28;20048;-67
2023/01/16 09:47:38;;;;;;;18.40;8.27;;;;;;;-3.49;80.49;146469.06;5082832;28;20032;-66
2023/01/16 09:50:07;;;;;;;18.13;8.48;;;;;;;-3.50;81.14;146465.25;5082950;28;20032;-67
2023/01/16 09:58:37;;;;;;;24.88;8.45;;;;;;;-3.34;80.83;146504.53;5020798;28;20106;-65
2023/01/16 10:01:05;;;;;;;;;;;;;;;-3.32;81.05;146510.88;5062840;28;20108;-67
2023/01/16 10:03:32;;;;;;;18.75;8.35;;;;;;;-3.20;80.49;146540.03;5082417;28;19967;-67
2023/01/16 10:06:15;;;;;;;26.10;9.13;;;;;;;-3.40;81.16;146489.34;5064582;28;20031;-67
2023/01/16 10:09:13;;;;;;;23.25;9.45;;;;;;;-3.16;81.14;146548.94;5082738;28;20032;-67
2023/01/16 10:11:45;;;;;;;18.27;8.02;;;;;;;-3.24;80.66;146529.88;5053215;28;20037;-68
2023/01/16 10:14:55;;;;;;;18.50;8.77;;;;;;;-3.40;80.94;146490.59;5067813;28;20324;-67
2023/01/16 10:18:05;;;;;;;22.98;8.80;;;;;;;-3.28;81.24;146519.75;5000800;28;20037;-67
2023/01/16 10:20:48;;;;;;;19.08;9.15;;;;;;;-3.12;80.71;146559.09;4988938;28;20042;-66
2023/01/16 10:23:30;;;;;;;21.52;8.82;;;;;;;-3.27;80.64;146522.28;4994827;28;20026;-68
2023/01/16 10:26:03;;;;;;;;;;;;;;;-3.27;80.94;146521.03;5051196;28;20082;-67
2023/01/16 10:28:37;;;;;;;20.88;9.00;;;;;;;-3.17;81.36;146547.63;5082202;28;20023;-66
2023/01/16 10:31:16;;;;;;;21.52;9.10;;;;;;;-3.25;81.22;146526.09;5073631;28;20035;-66
2023/01/16 10:33:55;;;;;;;12.98;7.93;;;;;;;-3.17;80.33;146546.38;5081677;28;20024;-67
2023/01/16 10:36:25;;;;;;;24.42;8.55;;;;;;;-3.15;80.78;146552.72;5082405;28;20036;-67
2023/01/16 10:38:56;;;;;;;22.75;8.60;;;;;;;-3.10;80.86;146564.13;5082232;28;20067;-67
2023/01/16 10:50:17;;;;;;;19.48;7.90;;;;;;;-3.06;81.15;146573.03;5085871;28;20068;-66
2023/01/16 10:52:45;;;;;;;20.48;8.52;;;;;;;-3.15;81.19;146551.44;5086081;28;20036;-67
2023/01/16 10:55:11;;;;;;;21.30;8.90;;;;;;;-3.01;81.08;146585.69;5085983;28;20020;-66
2023/01/16 10:57:44;;;;;;;20.85;8.93;;;;;;;-2.92;81.01;146607.22;5085971;28;20184;-66
2023/01/16 11:00:22;;;;;;;14.15;7.82;;;;;;;-2.92;80.98;146607.22;5084262;28;20139;-67
2023/01/16 11:02:48;;;;;;;16.90;7.90;;;;;;;-2.82;81.10;146632.56;5086006;28;20029;-66
2023/01/16 11:05:26;;;;;;;17.35;8.32;;;;;;;-2.68;80.99;146668.13;5064591;28;20092;-67
2023/01/16 11:08:04;;;;;;;15.45;7.35;;;;;;;-2.70;80.94;146661.78;5068163;28;20029;-66
2023/01/16 11:10:29;;;;;;;12.80;7.47;;;;;;;-2.61;81.48;146685.88;5078131;28;20029;-66
2023/01/16 11:18:33;;;;;;;15.35;8.10;;;;;;;-2.65;82.07;146675.72;5076137;28;20044;-67
2023/01/16 11:21:14;;;;;;;13.00;7.30;;;;;;;-2.54;81.48;146702.34;5071263;28;20027;-67
2023/01/16 11:23:43;;;;;;;16.35;7.28;;;;;;;-2.57;81.29;146694.75;5076767;28;20037;-67
2023/01/16 11:26:11;;;;;;;12.32;7.80;;;;;;;-2.46;80.78;146721.41;5076821;28;20016;-67
2023/01/16 11:28:37;;;;;;;18.73;7.50;;;;;;;-2.64;81.39;146678.28;5075405;28;20024;-67
2023/01/16 11:31:21;;;;;;;16.58;7.50;;;;;;;-2.83;81.60;146630.06;5076689;28;20021;-67
2023/01/16 11:33:54;;;;;;;18.80;7.88;;;;;;;-2.96;82.81;146599.63;5083387;28;20124;-66
2023/01/16 11:36:22;;;;;;;16.45;7.90;;;;;;;-3.08;82.62;146569.19;5084975;28;20088;-67
2023/01/16 11:38:49;;;;;;;14.73;7.78;;;;;;;-3.13;82.30;146557.78;5079373;28;20020;-67
2023/01/16 11:41:20;;;;;;;17.30;6.93;;;;;;;-3.22;81.53;146533.69;5069869;28;20021;-66
2023/01/16 11:46:49;;;;;;;;;;;;;;;-2.96;80.85;146599.63;5085142;28;20044;-67
2023/01/16 11:49:26;;;;;;;17.50;7.50;;;;;;;-2.87;79.96;146619.91;5070142;28;20177;-67
2023/01/16 11:51:56;;;;;;;11.57;7.18;;;;;;;-2.89;79.27;146614.81;5083518;28;20035;-67
2023/01/16 11:54:28;;;;;;;19.77;8.07;;;;;;;-2.93;79.60;146604.72;5065685;28;20051;-66
2023/01/16 11:57:03;;;;;;;13.63;7.43;;;;;;;-2.79;78.90;146641.47;5081171;28;20204;-67
2023/01/16 11:59:47;;;;;;;10.75;6.35;;;;;;;-3.14;79.38;146553.97;5076460;28;20207;-67
2023/01/16 12:02:39;;;;;;;15.40;7.78;;;;;;;-3.07;79.08;146571.72;5075348;28;20092;-67
2023/01/16 12:05:55;;;;;;;15.18;7.28;;;;;;;-2.84;79.21;146627.53;5063748;28;20527;-67
2023/01/16 12:08:52;;;;;;;13.98;7.03;;;;;;;-3.12;78.79;146559.09;5074782;28;20549;-67
2023/01/16 12:11:51;;;;;;;16.67;7.20;;;;;;;-3.07;79.86;146571.72;5072652;28;20066;-67
2023/01/16 12:14:28;;;;;;;16.60;7.45;;;;;;;-3.08;79.38;146567.94;5076405;28;20025;-67
2023/01/16 12:17:09;;;;;;;13.57;7.60;;;;;;;-2.80;79.06;146637.69;5075571;28;20045;-67
2023/01/16 12:19:52;;;;;;;15.97;6.97;;;;;;;-3.06;79.29;146574.28;5072787;28;20029;-66